Terminal Aerodrome Forecast
Issued by NWS

Home | Current Version | Previous Version | Text Only | Print | Product List | Glossary On
Versions: 1 2 3 4 5 6 7 8 9 10 11 12 13 14 15 16 17 18 19 20 21 22 23 24 25 26
000
FTUS44 KFWD 021738
TAFDAL
TAF
KDAL 021738Z 0218/0318 12005KT P6SM BKN070
     FM022000 09009KT P6SM VCSH BKN050
     FM030000 08007KT P6SM -SHRA OVC045
     FM031200 06014KT 4SM RA VCTS BKN008 OVC025CB
     FM031700 06012KT 2SM -SHRA BR OVC005=

USA.gov is the U.S. government's official web portal to all federal, state and local government web resources and services.